sensor_id;sensor_type;location;lat;lon;timestamp;pressure;altitude;pressure_sealevel;temperature;humidity
11878;BME280;5998;42.676;23.268;2023-01-28T00:01:50;94176.13;;;0.89;100.00
11878;BME280;5998;42.676;23.268;2023-01-28T00:04:17;94180.25;;;0.95;100.00
11878;BME280;5998;42.676;23.268;2023-01-28T00:06:45;94180.25;;;0.95;100.00
11878;BME280;5998;42.676;23.268;2023-01-28T00:09:11;94188.69;;;0.84;100.00
11878;BME280;5998;42.676;23.268;2023-01-28T00:11:38;94193.19;;;0.83;100.00
11878;BME280;5998;42.676;23.268;2023-01-28T00:14:05;94192.13;;;0.84;100.00
11878;BME280;5998;42.676;23.268;2023-01-28T00:16:32;94204.28;;;0.85;100.00
11878;BME280;5998;42.676;23.268;2023-01-28T00:18:59;94204.59;;;0.97;100.00
11878;BME280;5998;42.676;23.268;2023-01-28T00:21:26;94202.84;;;0.93;100.00
11878;BME280;5998;42.676;23.268;2023-01-28T00:23:55;94201.56;;;1.04;100.00
11878;BME280;5998;42.676;23.268;2023-01-28T00:26:22;94214.81;;;0.90;100.00
11878;BME280;5998;42.676;23.268;2023-01-28T00:28:49;94207.72;;;0.86;100.00
11878;BME280;5998;42.676;23.268;2023-01-28T00:31:18;94208.31;;;0.96;100.00
11878;BME280;5998;42.676;23.268;2023-01-28T00:33:47;94214.13;;;0.85;100.00
11878;BME280;5998;42.676;23.268;2023-01-28T00:36:15;94212.91;;;0.77;100.00
11878;BME280;5998;42.676;23.268;2023-01-28T00:38:42;94220.88;;;0.77;100.00
11878;BME280;5998;42.676;23.268;2023-01-28T00:41:13;94215.16;;;0.70;100.00
11878;BME280;5998;42.676;23.268;2023-01-28T00:43:41;94221.16;;;0.62;100.00
11878;BME280;5998;42.676;23.268;2023-01-28T00:46:10;94205.94;;;0.54;100.00
11878;BME280;5998;42.676;23.268;2023-01-28T00:48:39;94228.13;;;0.72;100.00
11878;BME280;5998;42.676;23.268;2023-01-28T00:51:06;94226.78;;;0.74;100.00
11878;BME280;5998;42.676;23.268;2023-01-28T00:53:34;94226.66;;;0.66;100.00
11878;BME280;5998;42.676;23.268;2023-01-28T00:56:04;94228.72;;;0.69;100.00
11878;BME280;5998;42.676;23.268;2023-01-28T00:58:32;94222.81;;;0.72;100.00
11878;BME280;5998;42.676;23.268;2023-01-28T01:01:06;94230.19;;;0.75;100.00
11878;BME280;5998;42.676;23.268;2023-01-28T01:03:32;94224.78;;;0.80;100.00
11878;BME280;5998;42.676;23.268;2023-01-28T01:05:59;94226.34;;;0.67;100.00
11878;BME280;5998;42.676;23.268;2023-01-28T01:08:26;94233.22;;;0.68;100.00
11878;BME280;5998;42.676;23.268;2023-01-28T01:10:59;94226.94;;;0.78;100.00
11878;BME280;5998;42.676;23.268;2023-01-28T01:13:26;94234.31;;;0.81;100.00
11878;BME280;5998;42.676;23.268;2023-01-28T01:16:02;94231.09;;;0.84;100.00
11878;BME280;5998;42.676;23.268;2023-01-28T01:18:29;94227.16;;;0.81;100.00
11878;BME280;5998;42.676;23.268;2023-01-28T01:20:56;94229.50;;;0.83;100.00
11878;BME280;5998;42.676;23.268;2023-01-28T01:23:23;94235.59;;;0.83;100.00
11878;BME280;5998;42.676;23.268;2023-01-28T01:25:51;94227.94;;;0.82;100.00
11878;BME280;5998;42.676;23.268;2023-01-28T01:28:17;94234.22;;;0.72;100.00
11878;BME280;5998;42.676;23.268;2023-01-28T01:30:45;94234.81;;;0.83;100.00
11878;BME280;5998;42.676;23.268;2023-01-28T01:33:14;94225.47;;;0.72;100.00
11878;BME280;5998;42.676;23.268;2023-01-28T01:35:41;94240.63;;;0.85;100.00
11878;BME280;5998;42.676;23.268;2023-01-28T01:38:08;94233.03;;;0.78;100.00
11878;BME280;5998;42.676;23.268;2023-01-28T01:40:34;94241.78;;;0.79;100.00
11878;BME280;5998;42.676;23.268;2023-01-28T01:43:01;94246.38;;;0.73;100.00
11878;BME280;5998;42.676;23.268;2023-01-28T01:45:31;94239.41;;;0.77;100.00
11878;BME280;5998;42.676;23.268;2023-01-28T01:48:02;94228.31;;;0.62;100.00
11878;BME280;5998;42.676;23.268;2023-01-28T01:50:33;94237.44;;;0.69;100.00
11878;BME280;5998;42.676;23.268;2023-01-28T01:53:04;94242.84;;;0.78;100.00
11878;BME280;5998;42.676;23.268;2023-01-28T01:55:34;94240.09;;;0.83;100.00
11878;BME280;5998;42.676;23.268;2023-01-28T01:58:05;94241.28;;;0.77;100.00
11878;BME280;5998;42.676;23.268;2023-01-28T02:00:32;94232.25;;;0.78;100.00
11878;BME280;5998;42.676;23.268;2023-01-28T02:03:00;94242.00;;;0.96;100.00
11878;BME280;5998;42.676;23.268;2023-01-28T02:05:26;94250.44;;;0.98;100.00
11878;BME280;5998;42.676;23.268;2023-01-28T02:07:56;94246.41;;;1.00;100.00
11878;BME280;5998;42.676;23.268;2023-01-28T02:10:46;94243.56;;;0.97;100.00
11878;BME280;5998;42.676;23.268;2023-01-28T02:13:15;94252.97;;;0.89;100.00
11878;BME280;5998;42.676;23.268;2023-01-28T02:15:43;94258.31;;;1.03;100.00
11878;BME280;5998;42.676;23.268;2023-01-28T02:18:11;94251.41;;;1.02;100.00
11878;BME280;5998;42.676;23.268;2023-01-28T02:20:50;94254.16;;;0.97;100.00
11878;BME280;5998;42.676;23.268;2023-01-28T02:23:43;94202.59;;;0.62;100.00
11878;BME280;5998;42.676;23.268;2023-01-28T02:29:26;94249.50;;;0.62;100.00
11878;BME280;5998;42.676;23.268;2023-01-28T02:32:00;94258.13;;;0.67;100.00
11878;BME280;5998;42.676;23.268;2023-01-28T02:34:34;94260.00;;;0.67;100.00
11878;BME280;5998;42.676;23.268;2023-01-28T02:37:06;94258.75;;;0.78;100.00
11878;BME280;5998;42.676;23.268;2023-01-28T02:39:39;94256.69;;;0.75;100.00
11878;BME280;5998;42.676;23.268;2023-01-28T02:42:09;94257.56;;;0.70;100.00
11878;BME280;5998;42.676;23.268;2023-01-28T02:44:40;94260.44;;;0.74;100.00
11878;BME280;5998;42.676;23.268;2023-01-28T02:47:09;94256.41;;;0.76;100.00
11878;BME280;5998;42.676;23.268;2023-01-28T02:49:55;94250.09;;;0.72;100.00
11878;BME280;5998;42.676;23.268;2023-01-28T02:52:37;94253.34;;;0.69;100.00
11878;BME280;5998;42.676;23.268;2023-01-28T02:55:30;94250.81;;;0.78;100.00
11878;BME280;5998;42.676;23.268;2023-01-28T02:58:08;94254.59;;;0.72;100.00
11878;BME280;5998;42.676;23.268;2023-01-28T03:00:45;94256.50;;;0.71;100.00
11878;BME280;5998;42.676;23.268;2023-01-28T03:03:19;94259.50;;;0.65;100.00
11878;BME280;5998;42.676;23.268;2023-01-28T03:05:51;94261.09;;;0.66;100.00
11878;BME280;5998;42.676;23.268;2023-01-28T03:08:34;94265.13;;;0.63;100.00
11878;BME280;5998;42.676;23.268;2023-01-28T03:11:20;94264.50;;;0.66;100.00
11878;BME280;5998;42.676;23.268;2023-01-28T03:14:05;94263.19;;;0.82;100.00
11878;BME280;5998;42.676;23.268;2023-01-28T03:16:52;94262.31;;;0.87;100.00
11878;BME280;5998;42.676;23.268;2023-01-28T03:19:37;94271.53;;;0.89;100.00
11878;BME280;5998;42.676;23.268;2023-01-28T03:22:23;94272.81;;;0.92;100.00
11878;BME280;5998;42.676;23.268;2023-01-28T03:25:07;94267.84;;;1.04;100.00
11878;BME280;5998;42.676;23.268;2023-01-28T03:27:55;94269.22;;;1.01;100.00
11878;BME280;5998;42.676;23.268;2023-01-28T03:30:46;94267.03;;;1.03;100.00
11878;BME280;5998;42.676;23.268;2023-01-28T03:33:35;94273.63;;;1.06;100.00
11878;BME280;5998;42.676;23.268;2023-01-28T03:36:19;94271.66;;;0.98;100.00
11878;BME280;5998;42.676;23.268;2023-01-28T03:39:04;94268.09;;;0.89;100.00
11878;BME280;5998;42.676;23.268;2023-01-28T03:41:31;94271.13;;;0.69;100.00
11878;BME280;5998;42.676;23.268;2023-01-28T03:43:58;94265.59;;;0.65;100.00
11878;BME280;5998;42.676;23.268;2023-01-28T03:46:42;94274.56;;;0.50;100.00
11878;BME280;5998;42.676;23.268;2023-01-28T03:49:09;94282.75;;;0.54;100.00
11878;BME280;5998;42.676;23.268;2023-01-28T03:51:36;94279.44;;;0.62;100.00
11878;BME280;5998;42.676;23.268;2023-01-28T03:54:03;94274.50;;;0.55;100.00
11878;BME280;5998;42.676;23.268;2023-01-28T03:56:30;94283.06;;;0.66;100.00
11878;BME280;5998;42.676;23.268;2023-01-28T03:59:02;94283.06;;;0.66;100.00
11878;BME280;5998;42.676;23.268;2023-01-28T04:01:28;94279.25;;;0.72;100.00
11878;BME280;5998;42.676;23.268;2023-01-28T04:03:55;94285.34;;;0.73;100.00
11878;BME280;5998;42.676;23.268;2023-01-28T04:06:23;94286.63;;;0.75;100.00
11878;BME280;5998;42.676;23.268;2023-01-28T04:08:50;94290.38;;;0.74;100.00
11878;BME280;5998;42.676;23.268;2023-01-28T04:11:18;94294.88;;;0.74;100.00
11878;BME280;5998;42.676;23.268;2023-01-28T04:13:47;94298.22;;;0.79;100.00
11878;BME280;5998;42.676;23.268;2023-01-28T04:16:16;94299.56;;;0.63;100.00
11878;BME280;5998;42.676;23.268;2023-01-28T04:18:44;94297.00;;;0.72;100.00
11878;BME280;5998;42.676;23.268;2023-01-28T04:21:11;94290.06;;;0.76;100.00
11878;BME280;5998;42.676;23.268;2023-01-28T04:23:39;94300.06;;;0.79;100.00
11878;BME280;5998;42.676;23.268;2023-01-28T04:26:06;94303.59;;;0.74;100.00
11878;BME280;5998;42.676;23.268;2023-01-28T04:28:32;94298.88;;;0.71;100.00
11878;BME280;5998;42.676;23.268;2023-01-28T04:30:59;94313.31;;;0.46;100.00
11878;BME280;5998;42.676;23.268;2023-01-28T04:33:26;94307.81;;;0.43;100.00
11878;BME280;5998;42.676;23.268;2023-01-28T04:35:52;94320.25;;;0.42;100.00
11878;BME280;5998;42.676;23.268;2023-01-28T04:38:19;94320.03;;;0.39;100.00
11878;BME280;5998;42.676;23.268;2023-01-28T04:40:49;94330.19;;;0.50;100.00
11878;BME280;5998;42.676;23.268;2023-01-28T04:43:16;94324.31;;;0.53;100.00
11878;BME280;5998;42.676;23.268;2023-01-28T04:45:44;94328.69;;;0.63;100.00
11878;BME280;5998;42.676;23.268;2023-01-28T04:48:11;94329.78;;;0.43;100.00
11878;BME280;5998;42.676;23.268;2023-01-28T04:50:38;94349.44;;;0.56;100.00
11878;BME280;5998;42.676;23.268;2023-01-28T04:53:04;94342.13;;;0.67;100.00
11878;BME280;5998;42.676;23.268;2023-01-28T04:55:31;94343.34;;;0.55;100.00
11878;BME280;5998;42.676;23.268;2023-01-28T04:57:59;94347.50;;;0.62;100.00
11878;BME280;5998;42.676;23.268;2023-01-28T05:00:26;94341.34;;;0.66;100.00
11878;BME280;5998;42.676;23.268;2023-01-28T05:02:52;94334.00;;;0.63;100.00
11878;BME280;5998;42.676;23.268;2023-01-28T05:05:19;94342.44;;;0.65;100.00
11878;BME280;5998;42.676;23.268;2023-01-28T05:07:50;94348.09;;;0.58;100.00
11878;BME280;5998;42.676;23.268;2023-01-28T05:10:17;94350.59;;;0.50;100.00
11878;BME280;5998;42.676;23.268;2023-01-28T05:12:45;94340.34;;;0.62;100.00
11878;BME280;5998;42.676;23.268;2023-01-28T05:15:13;94347.34;;;0.72;100.00
11878;BME280;5998;42.676;23.268;2023-01-28T05:17:40;94355.44;;;0.62;100.00
11878;BME280;5998;42.676;23.268;2023-01-28T05:20:09;94359.44;;;0.78;100.00
11878;BME280;5998;42.676;23.268;2023-01-28T05:22:36;94353.56;;;0.81;100.00
11878;BME280;5998;42.676;23.268;2023-01-28T05:25:04;94365.75;;;0.82;100.00
11878;BME280;5998;42.676;23.268;2023-01-28T05:27:31;94361.66;;;0.89;100.00
11878;BME280;5998;42.676;23.268;2023-01-28T05:29:58;94357.66;;;0.73;100.00
11878;BME280;5998;42.676;23.268;2023-01-28T05:32:26;94360.19;;;0.65;100.00
11878;BME280;5998;42.676;23.268;2023-01-28T05:34:53;94355.03;;;0.54;100.00
11878;BME280;5998;42.676;23.268;2023-01-28T05:37:19;94368.84;;;0.51;100.00
11878;BME280;5998;42.676;23.268;2023-01-28T05:39:46;94376.50;;;0.53;100.00
11878;BME280;5998;42.676;23.268;2023-01-28T05:42:13;94369.94;;;0.50;100.00
11878;BME280;5998;42.676;23.268;2023-01-28T05:44:40;94381.88;;;0.67;100.00
11878;BME280;5998;42.676;23.268;2023-01-28T05:47:06;94376.06;;;0.65;100.00
11878;BME280;5998;42.676;23.268;2023-01-28T05:49:34;94377.72;;;0.79;100.00
11878;BME280;5998;42.676;23.268;2023-01-28T05:52:01;94372.28;;;0.71;100.00
11878;BME280;5998;42.676;23.268;2023-01-28T05:54:28;94378.50;;;0.61;100.00
11878;BME280;5998;42.676;23.268;2023-01-28T05:56:54;94383.38;;;0.73;100.00
11878;BME280;5998;42.676;23.268;2023-01-28T05:59:21;94375.72;;;0.71;100.00
11878;BME280;5998;42.676;23.268;2023-01-28T06:01:48;94378.16;;;0.68;100.00
11878;BME280;5998;42.676;23.268;2023-01-28T06:04:14;94385.38;;;0.62;100.00
11878;BME280;5998;42.676;23.268;2023-01-28T06:06:44;94386.81;;;0.54;100.00
11878;BME280;5998;42.676;23.268;2023-01-28T06:09:11;94390.16;;;0.41;100.00
11878;BME280;5998;42.676;23.268;2023-01-28T06:11:38;94404.91;;;0.47;100.00
11878;BME280;5998;42.676;23.268;2023-01-28T06:14:05;94398.63;;;0.43;100.00
11878;BME280;5998;42.676;23.268;2023-01-28T06:16:31;94401.13;;;0.35;100.00
11878;BME280;5998;42.676;23.268;2023-01-28T06:18:58;94413.09;;;0.32;100.00
11878;BME280;5998;42.676;23.268;2023-01-28T06:21:25;94415.59;;;0.42;100.00
11878;BME280;5998;42.676;23.268;2023-01-28T06:23:53;94419.38;;;0.55;100.00
11878;BME280;5998;42.676;23.268;2023-01-28T06:26:20;94423.53;;;0.61;100.00
11878;BME280;5998;42.676;23.268;2023-01-28T06:28:47;94423.25;;;0.63;100.00
11878;BME280;5998;42.676;23.268;2023-01-28T06:31:13;94423.34;;;0.76;100.00
11878;BME280;5998;42.676;23.268;2023-01-28T06:33:40;94425.53;;;0.69;100.00
11878;BME280;5998;42.676;23.268;2023-01-28T06:36:07;94430.25;;;0.91;100.00
11878;BME280;5998;42.676;23.268;2023-01-28T06:38:34;94441.22;;;0.84;100.00
11878;BME280;5998;42.676;23.268;2023-01-28T06:41:02;94444.16;;;1.01;100.00
11878;BME280;5998;42.676;23.268;2023-01-28T06:43:29;94439.75;;;1.29;100.00
11878;BME280;5998;42.676;23.268;2023-01-28T06:45:56;94448.31;;;1.40;100.00
11878;BME280;5998;42.676;23.268;2023-01-28T06:48:22;94450.47;;;0.87;100.00
11878;BME280;5998;42.676;23.268;2023-01-28T06:50:49;94454.81;;;0.78;100.00
11878;BME280;5998;42.676;23.268;2023-01-28T06:53:17;94451.47;;;0.72;100.00
11878;BME280;5998;42.676;23.268;2023-01-28T06:55:44;94461.81;;;0.50;100.00
11878;BME280;5998;42.676;23.268;2023-01-28T06:58:12;94460.13;;;0.40;100.00
11878;BME280;5998;42.676;23.268;2023-01-28T07:00:39;94468.56;;;0.42;100.00
11878;BME280;5998;42.676;23.268;2023-01-28T07:03:05;94468.00;;;0.45;100.00
11878;BME280;5998;42.676;23.268;2023-01-28T07:05:32;94469.28;;;0.48;100.00
11878;BME280;5998;42.676;23.268;2023-01-28T07:07:59;94470.34;;;0.47;100.00
11878;BME280;5998;42.676;23.268;2023-01-28T07:10:26;94473.59;;;0.44;100.00
11878;BME280;5998;42.676;23.268;2023-01-28T07:12:53;94476.56;;;0.37;100.00
11878;BME280;5998;42.676;23.268;2023-01-28T07:15:21;94483.91;;;0.64;100.00
11878;BME280;5998;42.676;23.268;2023-01-28T07:17:47;94490.84;;;0.60;100.00
11878;BME280;5998;42.676;23.268;2023-01-28T07:20:15;94487.81;;;0.48;100.00
11878;BME280;5998;42.676;23.268;2023-01-28T07:22:43;94488.31;;;0.50;100.00
11878;BME280;5998;42.676;23.268;2023-01-28T07:25:11;94494.91;;;0.52;100.00
11878;BME280;5998;42.676;23.268;2023-01-28T07:27:38;94495.50;;;0.49;100.00
11878;BME280;5998;42.676;23.268;2023-01-28T07:30:06;94500.28;;;0.47;100.00
11878;BME280;5998;42.676;23.268;2023-01-28T07:32:34;94501.50;;;0.55;100.00
11878;BME280;5998;42.676;23.268;2023-01-28T07:35:00;94502.13;;;0.47;100.00
11878;BME280;5998;42.676;23.268;2023-01-28T07:37:27;94506.69;;;0.41;100.00
11878;BME280;5998;42.676;23.268;2023-01-28T07:39:54;94506.19;;;0.39;100.00
11878;BME280;5998;42.676;23.268;2023-01-28T07:42:20;94510.44;;;0.40;100.00
11878;BME280;5998;42.676;23.268;2023-01-28T07:44:47;94514.06;;;0.44;100.00
11878;BME280;5998;42.676;23.268;2023-01-28T07:47:14;94511.81;;;0.56;100.00
11878;BME280;5998;42.676;23.268;2023-01-28T07:49:42;94521.22;;;0.68;100.00
11878;BME280;5998;42.676;23.268;2023-01-28T07:52:09;94522.81;;;0.69;100.00
11878;BME280;5998;42.676;23.268;2023-01-28T07:54:35;94518.91;;;0.80;100.00
11878;BME280;5998;42.676;23.268;2023-01-28T07:57:06;94524.03;;;0.76;100.00
11878;BME280;5998;42.676;23.268;2023-01-28T07:59:34;94523.88;;;0.86;100.00
11878;BME280;5998;42.676;23.268;2023-01-28T08:02:00;94528.19;;;1.01;100.00
11878;BME280;5998;42.676;23.268;2023-01-28T08:04:27;94523.81;;;1.10;100.00
11878;BME280;5998;42.676;23.268;2023-01-28T08:06:56;94530.53;;;1.21;100.00
11878;BME280;5998;42.676;23.268;2023-01-28T08:09:22;94516.22;;;1.22;100.00
11878;BME280;5998;42.676;23.268;2023-01-28T08:11:49;94533.19;;;1.21;100.00
11878;BME280;5998;42.676;23.268;2023-01-28T08:14:16;94527.09;;;1.39;100.00
11878;BME280;5998;42.676;23.268;2023-01-28T08:16:43;94530.41;;;1.31;100.00
11878;BME280;5998;42.676;23.268;2023-01-28T08:19:10;94532.41;;;1.39;100.00
11878;BME280;5998;42.676;23.268;2023-01-28T08:21:37;94537.25;;;1.32;100.00
11878;BME280;5998;42.676;23.268;2023-01-28T08:24:06;94514.56;;;1.26;100.00
11878;BME280;5998;42.676;23.268;2023-01-28T08:26:32;94545.00;;;1.10;100.00
11878;BME280;5998;42.676;23.268;2023-01-28T08:28:59;94537.72;;;1.21;100.00
11878;BME280;5998;42.676;23.268;2023-01-28T08:31:26;94535.22;;;1.29;100.00
11878;BME280;5998;42.676;23.268;2023-01-28T08:33:54;94549.69;;;1.37;100.00
11878;BME280;5998;42.676;23.268;2023-01-28T08:36:21;94535.63;;;1.36;100.00
11878;BME280;5998;42.676;23.268;2023-01-28T08:38:50;94538.53;;;1.35;100.00
11878;BME280;5998;42.676;23.268;2023-01-28T08:41:20;94545.94;;;1.19;100.00
11878;BME280;5998;42.676;23.268;2023-01-28T08:43:47;94542.56;;;1.13;100.00
11878;BME280;5998;42.676;23.268;2023-01-28T08:46:14;94527.78;;;1.12;100.00
11878;BME280;5998;42.676;23.268;2023-01-28T08:48:40;94544.28;;;1.42;100.00
11878;BME280;5998;42.676;23.268;2023-01-28T08:51:07;94546.13;;;1.60;100.00
11878;BME280;5998;42.676;23.268;2023-01-28T08:53:34;94540.19;;;1.49;100.00
11878;BME280;5998;42.676;23.268;2023-01-28T08:56:00;94539.97;;;1.46;100.00
11878;BME280;5998;42.676;23.268;2023-01-28T08:58:28;94546.28;;;1.50;100.00
11878;BME280;5998;42.676;23.268;2023-01-28T09:00:55;94544.97;;;1.66;100.00
11878;BME280;5998;42.676;23.268;2023-01-28T09:03:22;94539.75;;;1.61;100.00
11878;BME280;5998;42.676;23.268;2023-01-28T09:05:49;94544.47;;;1.64;100.00
11878;BME280;5998;42.676;23.268;2023-01-28T09:08:16;94535.53;;;1.73;100.00
11878;BME280;5998;42.676;23.268;2023-01-28T09:10:43;94542.75;;;1.73;100.00
11878;BME280;5998;42.676;23.268;2023-01-28T09:13:11;94539.50;;;1.90;100.00
11878;BME280;5998;42.676;23.268;2023-01-28T09:15:40;94543.84;;;1.86;100.00
11878;BME280;5998;42.676;23.268;2023-01-28T09:18:06;94545.75;;;2.12;100.00
11878;BME280;5998;42.676;23.268;2023-01-28T09:20:33;94550.00;;;1.67;100.00
11878;BME280;5998;42.676;23.268;2023-01-28T09:23:00;94538.59;;;1.67;100.00
11878;BME280;5998;42.676;23.268;2023-01-28T09:25:28;94552.44;;;1.64;100.00
11878;BME280;5998;42.676;23.268;2023-01-28T09:27:54;94550.63;;;1.59;100.00
11878;BME280;5998;42.676;23.268;2023-01-28T09:30:21;94549.88;;;1.59;100.00
11878;BME280;5998;42.676;23.268;2023-01-28T09:32:50;94548.63;;;1.70;100.00
11878;BME280;5998;42.676;23.268;2023-01-28T09:35:17;94548.16;;;1.82;100.00
11878;BME280;5998;42.676;23.268;2023-01-28T09:37:44;94539.97;;;1.64;100.00
11878;BME280;5998;42.676;23.268;2023-01-28T09:40:14;94546.69;;;1.57;100.00
11878;BME280;5998;42.676;23.268;2023-01-28T09:42:58;94545.13;;;1.56;100.00
11878;BME280;5998;42.676;23.268;2023-01-28T09:45:35;94550.91;;;1.76;100.00
11878;BME280;5998;42.676;23.268;2023-01-28T09:48:09;94549.03;;;1.77;100.00
11878;BME280;5998;42.676;23.268;2023-01-28T09:50:41;94548.91;;;1.68;100.00
11878;BME280;5998;42.676;23.268;2023-01-28T09:53:21;94549.44;;;1.52;100.00
11878;BME280;5998;42.676;23.268;2023-01-28T09:55:52;94544.91;;;1.52;100.00
11878;BME280;5998;42.676;23.268;2023-01-28T09:58:20;94544.00;;;1.25;100.00
11878;BME280;5998;42.676;23.268;2023-01-28T10:00:53;94555.34;;;1.11;100.00
11878;BME280;5998;42.676;23.268;2023-01-28T10:03:46;94557.63;;;1.37;100.00
11878;BME280;5998;42.676;23.268;2023-01-28T10:06:22;94551.97;;;1.25;100.00
11878;BME280;5998;42.676;23.268;2023-01-28T10:09:03;94552.34;;;1.37;100.00
11878;BME280;5998;42.676;23.268;2023-01-28T10:11:47;94548.59;;;1.19;100.00
11878;BME280;5998;42.676;23.268;2023-01-28T10:14:25;94551.31;;;1.14;100.00
11878;BME280;5998;42.676;23.268;2023-01-28T10:17:00;94542.44;;;1.05;100.00
11878;BME280;5998;42.676;23.268;2023-01-28T10:19:35;94552.97;;;1.10;100.00
11878;BME280;5998;42.676;23.268;2023-01-28T10:22:05;94543.06;;;0.97;100.00
11878;BME280;5998;42.676;23.268;2023-01-28T10:24:35;94548.59;;;1.00;100.00
11878;BME280;5998;42.676;23.268;2023-01-28T10:27:08;94541.72;;;0.99;100.00
11878;BME280;5998;42.676;23.268;2023-01-28T10:29:38;94550.09;;;1.25;100.00
11878;BME280;5998;42.676;23.268;2023-01-28T10:32:16;94543.78;;;1.21;100.00
11878;BME280;5998;42.676;23.268;2023-01-28T10:34:46;94547.53;;;1.20;100.00
11878;BME280;5998;42.676;23.268;2023-01-28T10:37:13;94533.84;;;1.13;100.00
11878;BME280;5998;42.676;23.268;2023-01-28T10:39:41;94548.41;;;1.34;100.00
11878;BME280;5998;42.676;23.268;2023-01-28T10:42:21;94543.59;;;1.17;100.00
11878;BME280;5998;42.676;23.268;2023-01-28T10:44:56;94558.06;;;1.06;100.00
11878;BME280;5998;42.676;23.268;2023-01-28T10:47:28;94549.25;;;1.11;100.00
11878;BME280;5998;42.676;23.268;2023-01-28T10:49:58;94546.75;;;1.19;100.00
11878;BME280;5998;42.676;23.268;2023-01-28T10:52:25;94536.78;;;1.11;100.00
11878;BME280;5998;42.676;23.268;2023-01-28T10:54:58;94545.72;;;1.15;100.00
11878;BME280;5998;42.676;23.268;2023-01-28T10:57:25;94512.56;;;0.99;100.00
11878;BME280;5998;42.676;23.268;2023-01-28T10:59:52;94551.97;;;1.25;100.00
11878;BME280;5998;42.676;23.268;2023-01-28T11:02:24;94546.50;;;1.35;100.00
11878;BME280;5998;42.676;23.268;2023-01-28T11:05:06;94542.75;;;1.54;100.00
11878;BME280;5998;42.676;23.268;2023-01-28T11:07:33;94536.25;;;1.47;100.00
11878;BME280;5998;42.676;23.268;2023-01-28T11:10:00;94543.56;;;1.36;100.00
11878;BME280;5998;42.676;23.268;2023-01-28T11:12:28;94543.00;;;1.39;100.00
11878;BME280;5998;42.676;23.268;2023-01-28T11:14:56;94554.69;;;1.38;100.00
11878;BME280;5998;42.676;23.268;2023-01-28T11:17:25;94539.88;;;1.37;100.00
11878;BME280;5998;42.676;23.268;2023-01-28T11:19:55;94538.69;;;1.43;100.00
11878;BME280;5998;42.676;23.268;2023-01-28T11:22:28;94537.22;;;1.69;100.00
11878;BME280;5998;42.676;23.268;2023-01-28T11:24:57;94540.63;;;1.56;100.00
11878;BME280;5998;42.676;23.268;2023-01-28T11:27:28;94530.00;;;1.56;100.00
11878;BME280;5998;42.676;23.268;2023-01-28T11:29:56;94540.16;;;1.68;100.00
11878;BME280;5998;42.676;23.268;2023-01-28T11:32:27;94533.81;;;1.83;100.00
11878;BME280;5998;42.676;23.268;2023-01-28T11:34:55;94536.13;;;1.70;100.00
11878;BME280;5998;42.676;23.268;2023-01-28T11:37:26;94534.53;;;2.02;100.00
11878;BME280;5998;42.676;23.268;2023-01-28T11:40:01;94518.28;;;1.90;100.00
11878;BME280;5998;42.676;23.268;2023-01-28T11:42:29;94531.47;;;1.81;100.00
11878;BME280;5998;42.676;23.268;2023-01-28T11:44:56;94530.47;;;1.91;100.00
11878;BME280;5998;42.676;23.268;2023-01-28T11:47:32;94527.94;;;1.99;100.00
11878;BME280;5998;42.676;23.268;2023-01-28T11:50:14;94522.47;;;2.36;100.00
11878;BME280;5998;42.676;23.268;2023-01-28T11:52:57;94499.06;;;2.25;100.00
11878;BME280;5998;42.676;23.268;2023-01-28T11:55:47;94521.88;;;2.39;100.00
11878;BME280;5998;42.676;23.268;2023-01-28T11:58:21;94521.19;;;2.48;100.00
11878;BME280;5998;42.676;23.268;2023-01-28T12:00:59;94514.22;;;2.38;100.00
11878;BME280;5998;42.676;23.268;2023-01-28T12:03:46;94509.97;;;2.37;100.00
11878;BME280;5998;42.676;23.268;2023-01-28T12:06:34;94520.91;;;2.63;100.00
11878;BME280;5998;42.676;23.268;2023-01-28T12:09:14;94510.81;;;2.87;100.00
11878;BME280;5998;42.676;23.268;2023-01-28T12:11:51;94513.13;;;2.53;100.00
11878;BME280;5998;42.676;23.268;2023-01-28T12:15:04;94517.25;;;2.31;100.00
11878;BME280;5998;42.676;23.268;2023-01-28T12:17:44;94517.06;;;2.42;100.00
11878;BME280;5998;42.676;23.268;2023-01-28T12:20:18;94518.63;;;2.56;100.00
11878;BME280;5998;42.676;23.268;2023-01-28T12:22:59;94518.34;;;3.21;100.00
11878;BME280;5998;42.676;23.268;2023-01-28T12:25:42;94518.72;;;2.65;100.00
11878;BME280;5998;42.676;23.268;2023-01-28T12:28:18;94518.06;;;3.09;100.00
11878;BME280;5998;42.676;23.268;2023-01-28T12:31:13;94513.28;;;3.19;100.00
11878;BME280;5998;42.676;23.268;2023-01-28T12:33:58;94522.16;;;3.28;100.00
11878;BME280;5998;42.676;23.268;2023-01-28T12:36:45;94520.09;;;2.76;100.00
11878;BME280;5998;42.676;23.268;2023-01-28T12:39:29;94522.41;;;3.05;100.00
11878;BME280;5998;42.676;23.268;2023-01-28T12:42:08;94529.38;;;3.14;100.00
11878;BME280;5998;42.676;23.268;2023-01-28T12:44:39;94526.06;;;3.31;100.00
11878;BME280;5998;42.676;23.268;2023-01-28T12:47:12;94526.00;;;4.11;100.00
11878;BME280;5998;42.676;23.268;2023-01-28T12:49:45;94529.00;;;3.87;100.00
11878;BME280;5998;42.676;23.268;2023-01-28T12:52:17;94531.16;;;3.41;100.00
11878;BME280;5998;42.676;23.268;2023-01-28T12:54:52;94538.13;;;2.65;100.00
11878;BME280;5998;42.676;23.268;2023-01-28T12:57:25;94554.66;;;2.35;100.00
11878;BME280;5998;42.676;23.268;2023-01-28T13:00:14;94546.88;;;2.11;100.00
11878;BME280;5998;42.676;23.268;2023-01-28T13:02:46;94549.56;;;1.93;100.00
11878;BME280;5998;42.676;23.268;2023-01-28T13:05:20;94551.25;;;2.02;100.00
11878;BME280;5998;42.676;23.268;2023-01-28T13:07:51;94548.41;;;2.12;100.00
11878;BME280;5998;42.676;23.268;2023-01-28T13:10:24;94567.81;;;2.13;100.00
11878;BME280;5998;42.676;23.268;2023-01-28T13:12:55;94554.00;;;1.97;100.00
11878;BME280;5998;42.676;23.268;2023-01-28T13:15:23;94560.03;;;2.03;100.00
11878;BME280;5998;42.676;23.268;2023-01-28T13:17:56;94568.00;;;2.03;100.00
11878;BME280;5998;42.676;23.268;2023-01-28T13:20:35;94555.69;;;2.07;100.00
11878;BME280;5998;42.676;23.268;2023-01-28T13:23:04;94559.94;;;2.08;100.00